Time;durP1;ratioP1;P1;durP2;ratioP2;P2;SDS_P1;SDS_P2;PMS_P1;PMS_P2;Temp;Humidity;BMP_temperature;BMP_pressure;BME280_temperature;BME280_humidity;BME280_pressure;Samples;Min_cycle;Max_cycle;Signal;HPM_P1;HPM_P2
2021/08/15 00:00:01;;;;;;;20.67;13.30;;;;;;;;;;5002400;28;20042;-63
2021/08/15 00:02:47;;;;;;;17.40;12.07;;;;;;;;;;5011995;28;20056;-63
2021/08/15 00:05:34;;;;;;;19.38;12.48;;;;;;;;;;5011855;28;20463;-63
2021/08/15 00:08:19;;;;;;;18.58;10.93;;;;;;;;;;5012211;28;20046;-63
2021/08/15 00:11:05;;;;;;;22.40;12.07;;;;;;;;;;5012809;28;20058;-63
2021/08/15 00:13:50;;;;;;;20.63;12.90;;;;;;;;;;5011695;28;20054;-63
2021/08/15 00:16:37;;;;;;;20.20;12.00;;;;;;;;;;4996128;28;20100;-63
2021/08/15 00:19:22;;;;;;;18.27;12.85;;;;;;;;;;4995801;28;20050;-63
2021/08/15 00:22:08;;;;;;;20.50;12.60;;;;;;;;;;4995712;28;20050;-63
2021/08/15 00:24:53;;;;;;;21.52;12.70;;;;;;;;;;4995638;28;20182;-62
2021/08/15 00:27:39;;;;;;;18.70;12.00;;;;;;;;;;4996145;28;20054;-63
2021/08/15 00:30:24;;;;;;;16.17;11.75;;;;;;;;;;4995881;28;20186;-63
2021/08/15 00:33:10;;;;;;;20.70;12.45;;;;;;;;;;4995626;28;20500;-63
2021/08/15 00:35:55;;;;;;;16.70;11.55;;;;;;;;;;4995744;28;20497;-63
2021/08/15 00:38:41;;;;;;;17.10;11.38;;;;;;;;;;4995375;28;20046;-63
2021/08/15 00:41:26;;;;;;;17.20;11.55;;;;;;;;;;4995509;28;20061;-63
2021/08/15 00:44:12;;;;;;;17.55;11.15;;;;;;;;;;4995468;28;20058;-63
2021/08/15 00:46:58;;;;;;;17.15;11.40;;;;;;;;;;4995635;28;20126;-62
2021/08/15 00:49:43;;;;;;;18.88;11.20;;;;;;;;;;4995062;28;20420;-64
2021/08/15 00:52:29;;;;;;;15.90;10.82;;;;;;;;;;4995576;28;20074;-63
2021/08/15 00:55:14;;;;;;;17.30;10.38;;;;;;;;;;4995280;28;20038;-63
2021/08/15 00:57:59;;;;;;;18.92;11.25;;;;;;;;;;4995271;28;20057;-63
2021/08/15 01:00:45;;;;;;;22.10;10.88;;;;;;;;;;4994978;28;20046;-63
2021/08/15 01:03:31;;;;;;;15.73;10.35;;;;;;;;;;4995012;28;20130;-63
2021/08/15 01:06:16;;;;;;;14.27;9.75;;;;;;;;;;4995210;28;20050;-64
2021/08/15 01:09:02;;;;;;;14.60;10.35;;;;;;;;;;4995347;28;20440;-63
2021/08/15 01:11:47;;;;;;;14.23;9.90;;;;;;;;;;4995180;28;20046;-63
2021/08/15 01:14:32;;;;;;;18.02;10.10;;;;;;;;;;4993851;28;20057;-63
2021/08/15 01:17:19;;;;;;;16.48;10.10;;;;;;;;;;4994015;28;20062;-64
2021/08/15 01:20:05;;;;;;;16.77;10.43;;;;;;;;;;4994491;28;20042;-63
2021/08/15 01:22:50;;;;;;;13.73;9.77;;;;;;;;;;5016115;28;20053;-63
2021/08/15 01:25:35;;;;;;;16.92;9.95;;;;;;;;;;5033940;28;20124;-63
2021/08/15 01:28:21;;;;;;;13.38;9.02;;;;;;;;;;5034417;28;20045;-63
2021/08/15 01:31:07;;;;;;;13.90;9.52;;;;;;;;;;5012607;28;20065;-63
2021/08/15 01:33:52;;;;;;;15.60;9.90;;;;;;;;;;4994648;28;20050;-64
2021/08/15 01:36:38;;;;;;;13.88;9.68;;;;;;;;;;4994559;28;20497;-63
2021/08/15 01:39:23;;;;;;;13.40;9.52;;;;;;;;;;4994795;28;20038;-63
2021/08/15 01:42:08;;;;;;;17.63;9.57;;;;;;;;;;4994490;28;20066;-64
2021/08/15 01:44:54;;;;;;;20.20;9.95;;;;;;;;;;4994293;28;20047;-63
2021/08/15 01:47:39;;;;;;;12.98;9.23;;;;;;;;;;4994474;28;20046;-63
2021/08/15 01:50:25;;;;;;;13.00;9.25;;;;;;;;;;4994410;28;20058;-63
2021/08/15 01:53:11;;;;;;;12.00;8.82;;;;;;;;;;5013863;28;20049;-64
2021/08/15 01:55:56;;;;;;;14.35;9.40;;;;;;;;;;5013130;28;20514;-63
2021/08/15 01:58:41;;;;;;;15.73;10.00;;;;;;;;;;5013793;28;20037;-63
2021/08/15 02:01:27;;;;;;;12.68;8.68;;;;;;;;;;5011811;28;20046;-63
2021/08/15 02:04:13;;;;;;;15.00;8.63;;;;;;;;;;5013505;28;20056;-63
2021/08/15 02:06:58;;;;;;;17.75;9.18;;;;;;;;;;5013617;28;20153;-63
2021/08/15 02:09:44;;;;;;;12.80;8.25;;;;;;;;;;5013749;28;20069;-63
2021/08/15 02:12:29;;;;;;;13.63;9.02;;;;;;;;;;5004079;28;20050;-63
2021/08/15 02:15:14;;;;;;;13.20;8.95;;;;;;;;;;4993669;28;20049;-63
2021/08/15 02:18:01;;;;;;;13.00;8.10;;;;;;;;;;4992866;28;20054;-63
2021/08/15 02:20:46;;;;;;;11.48;8.15;;;;;;;;;;4993199;28;20124;-63
2021/08/15 02:23:31;;;;;;;12.35;8.35;;;;;;;;;;5006602;28;20543;-64
2021/08/15 02:26:17;;;;;;;11.30;8.38;;;;;;;;;;5013224;28;20056;-63
2021/08/15 02:29:03;;;;;;;13.35;8.27;;;;;;;;;;5013414;28;20492;-63
2021/08/15 02:31:48;;;;;;;13.45;8.43;;;;;;;;;;5012962;28;20507;-63
2021/08/15 02:34:33;;;;;;;16.08;8.90;;;;;;;;;;5012337;28;20065;-63
2021/08/15 02:37:19;;;;;;;11.93;8.57;;;;;;;;;;5013201;28;20050;-63
2021/08/15 02:40:05;;;;;;;15.23;8.73;;;;;;;;;;5013080;28;20471;-63
2021/08/15 02:42:51;;;;;;;12.82;9.27;;;;;;;;;;5011730;28;20050;-63
2021/08/15 02:45:36;;;;;;;13.85;8.38;;;;;;;;;;4997210;28;20054;-62
2021/08/15 02:48:21;;;;;;;14.77;8.98;;;;;;;;;;4993276;28;20420;-63
2021/08/15 02:51:07;;;;;;;12.10;8.00;;;;;;;;;;4993407;28;20046;-63
2021/08/15 02:53:54;;;;;;;11.05;7.82;;;;;;;;;;5000479;28;20196;-63
2021/08/15 02:56:39;;;;;;;13.32;8.57;;;;;;;;;;5012854;28;20195;-63
2021/08/15 02:59:24;;;;;;;12.55;9.13;;;;;;;;;;5012802;28;20049;-63
2021/08/15 03:02:14;;;;;;;12.73;8.98;;;;;;;;;;5012585;28;20500;-63
2021/08/15 03:05:00;;;;;;;13.23;8.82;;;;;;;;;;4996930;28;20469;-63
2021/08/15 03:07:46;;;;;;;14.05;8.52;;;;;;;;;;4992943;28;20548;-63
2021/08/15 03:10:31;;;;;;;13.60;8.10;;;;;;;;;;4992950;28;20050;-63
2021/08/15 03:13:17;;;;;;;13.00;8.60;;;;;;;;;;4992908;28;20462;-63
2021/08/15 03:16:02;;;;;;;12.15;8.30;;;;;;;;;;4992983;28;20046;-62
2021/08/15 03:18:48;;;;;;;12.25;8.00;;;;;;;;;;4992833;28;20120;-63
2021/08/15 03:21:36;;;;;;;13.95;9.75;;;;;;;;;;4992827;28;20046;-63
2021/08/15 03:24:21;;;;;;;13.90;9.10;;;;;;;;;;5012064;28;20439;-63
2021/08/15 03:27:07;;;;;;;14.07;9.07;;;;;;;;;;5012442;28;20049;-63
2021/08/15 03:29:53;;;;;;;13.13;8.77;;;;;;;;;;5012223;28;20520;-63
2021/08/15 03:32:38;;;;;;;13.32;8.18;;;;;;;;;;5011143;28;20073;-63
2021/08/15 03:35:24;;;;;;;12.63;8.27;;;;;;;;;;5012186;28;20054;-63
2021/08/15 03:38:09;;;;;;;15.63;8.95;;;;;;;;;;5011440;28;20056;-63
2021/08/15 03:40:54;;;;;;;12.25;8.48;;;;;;;;;;5012386;28;20057;-63
2021/08/15 03:43:39;;;;;;;13.82;8.73;;;;;;;;;;5002693;28;20073;-64
2021/08/15 03:46:25;;;;;;;12.73;9.05;;;;;;;;;;4995421;28;20050;-63
2021/08/15 03:49:11;;;;;;;13.57;8.63;;;;;;;;;;4996862;28;20053;-63
2021/08/15 03:51:56;;;;;;;15.40;8.95;;;;;;;;;;4996539;28;20050;-63
2021/08/15 03:54:42;;;;;;;14.55;8.68;;;;;;;;;;4995982;28;20047;-63
2021/08/15 03:57:27;;;;;;;13.90;8.35;;;;;;;;;;4995639;28;20046;-63
2021/08/15 04:00:12;;;;;;;13.48;8.98;;;;;;;;;;4996356;28;20046;-63
2021/08/15 04:02:58;;;;;;;12.43;8.98;;;;;;;;;;4996476;28;20051;-63
2021/08/15 04:05:43;;;;;;;14.00;9.07;;;;;;;;;;4996067;28;20124;-63
2021/08/15 04:08:29;;;;;;;14.52;9.02;;;;;;;;;;4996365;28;20109;-63
2021/08/15 04:11:15;;;;;;;11.40;8.13;;;;;;;;;;4996146;28;20049;-63
2021/08/15 04:14:00;;;;;;;10.80;8.43;;;;;;;;;;4997174;28;20076;-63
2021/08/15 04:16:45;;;;;;;14.93;8.93;;;;;;;;;;5015719;28;20053;-63
2021/08/15 04:19:31;;;;;;;13.35;9.07;;;;;;;;;;5015674;28;20057;-63
2021/08/15 04:22:16;;;;;;;10.82;8.48;;;;;;;;;;5064477;23;20115;-62
2021/08/15 04:25:01;;;;;;;11.90;7.53;;;;;;;;;;5015603;28;20128;-62
2021/08/15 04:27:48;;;;;;;13.48;7.90;;;;;;;;;;5014636;28;20165;-62
2021/08/15 04:30:34;;;;;;;8.90;7.13;;;;;;;;;;5013977;28;20128;-62
2021/08/15 04:33:21;;;;;;;13.95;8.73;;;;;;;;;;5003209;28;20052;-62
2021/08/15 04:36:06;;;;;;;12.35;7.63;;;;;;;;;;5015498;28;20096;-62
2021/08/15 04:38:52;;;;;;;11.77;8.55;;;;;;;;;;5015256;28;20204;-62
2021/08/15 04:41:38;;;;;;;12.10;8.38;;;;;;;;;;5015183;28;20510;-62
2021/08/15 04:44:23;;;;;;;13.05;8.30;;;;;;;;;;5013643;28;20057;-62
2021/08/15 04:47:08;;;;;;;14.95;8.60;;;;;;;;;;5015138;28;20689;-62
2021/08/15 04:49:56;;;;;;;10.20;7.70;;;;;;;;;;5015304;28;20053;-62
2021/08/15 04:52:41;;;;;;;11.77;8.18;;;;;;;;;;5015006;28;20046;-62
2021/08/15 04:55:27;;;;;;;9.80;7.25;;;;;;;;;;5014098;28;20041;-62
2021/08/15 04:58:12;;;;;;;10.95;7.78;;;;;;;;;;5013891;28;20049;-62
2021/08/15 05:00:57;;;;;;;11.20;7.47;;;;;;;;;;5015080;28;20050;-62
2021/08/15 05:03:43;;;;;;;14.50;7.88;;;;;;;;;;5012967;28;20060;-62
2021/08/15 05:06:28;;;;;;;13.57;7.82;;;;;;;;;;5013961;28;20149;-62
2021/08/15 05:09:13;;;;;;;8.80;6.60;;;;;;;;;;4995282;28;20074;-62
2021/08/15 05:11:58;;;;;;;9.80;7.05;;;;;;;;;;4995060;28;20418;-62
2021/08/15 05:14:45;;;;;;;13.00;7.57;;;;;;;;;;5001137;28;20100;-62
2021/08/15 05:17:30;;;;;;;8.80;7.18;;;;;;;;;;5015408;28;20507;-62
2021/08/15 05:20:15;;;;;;;9.18;6.72;;;;;;;;;;5015903;28;20056;-61
2021/08/15 05:23:00;;;;;;;11.05;7.35;;;;;;;;;;5014241;28;20054;-62
2021/08/15 05:25:46;;;;;;;10.38;7.38;;;;;;;;;;5013933;28;20057;-61
2021/08/15 05:28:31;;;;;;;11.00;7.07;;;;;;;;;;5013095;28;20049;-62
2021/08/15 05:31:17;;;;;;;12.57;7.93;;;;;;;;;;5014877;28;20084;-61
2021/08/15 05:34:02;;;;;;;11.88;7.97;;;;;;;;;;5014681;28;20069;-62
2021/08/15 05:36:48;;;;;;;11.00;7.85;;;;;;;;;;5014747;28;20052;-61
2021/08/15 05:39:34;;;;;;;16.75;9.07;;;;;;;;;;5016026;28;20056;-61
2021/08/15 05:42:19;;;;;;;12.00;8.48;;;;;;;;;;5015420;28;20053;-61
2021/08/15 05:45:05;;;;;;;11.13;7.88;;;;;;;;;;5014638;28;20141;-61
2021/08/15 05:47:50;;;;;;;13.32;8.32;;;;;;;;;;4995035;28;20050;-61
2021/08/15 05:50:36;;;;;;;13.52;9.07;;;;;;;;;;4995478;28;20128;-61
2021/08/15 05:53:21;;;;;;;13.35;9.73;;;;;;;;;;4995764;28;20082;-62
2021/08/15 05:56:07;;;;;;;15.43;10.80;;;;;;;;;;5003192;28;20120;-62
2021/08/15 05:58:52;;;;;;;11.75;9.65;;;;;;;;;;5014091;28;20046;-62
2021/08/15 06:01:38;;;;;;;14.50;9.82;;;;;;;;;;5013718;28;20046;-62
2021/08/15 06:04:42;;;;;;;17.52;10.10;;;;;;;;;;5013626;28;20049;-62
2021/08/15 06:07:46;;;;;;;17.95;10.32;;;;;;;;;;5012447;28;20038;-62
2021/08/15 06:10:53;;;;;;;18.02;9.80;;;;;;;;;;5013521;28;20377;-62
2021/08/15 06:13:59;;;;;;;18.38;9.70;;;;;;;;;;5013465;28;20487;-62
2021/08/15 06:16:44;;;;;;;12.35;9.50;;;;;;;;;;5012894;28;20065;-62
2021/08/15 06:19:48;;;;;;;11.10;8.82;;;;;;;;;;5013465;28;20458;-62
2021/08/15 06:22:37;;;;;;;13.32;8.90;;;;;;;;;;5013414;28;20080;-62
2021/08/15 06:25:42;;;;;;;12.13;8.75;;;;;;;;;;5013308;28;20500;-62
2021/08/15 06:28:46;;;;;;;13.90;8.52;;;;;;;;;;5013428;28;20057;-62
2021/08/15 06:31:32;;;;;;;15.18;7.53;;;;;;;;;;5013175;28;20058;-62
2021/08/15 06:34:17;;;;;;;10.18;7.90;;;;;;;;;;5013083;28;20107;-62
2021/08/15 06:37:05;;;;;;;13.20;8.25;;;;;;;;;;5012593;28;20459;-62
2021/08/15 06:39:51;;;;;;;13.98;8.60;;;;;;;;;;5013075;28;20640;-62
2021/08/15 06:42:36;;;;;;;11.38;8.20;;;;;;;;;;5013164;28;20050;-62
2021/08/15 06:45:21;;;;;;;11.05;7.78;;;;;;;;;;5012954;28;20049;-62
2021/08/15 06:48:07;;;;;;;10.27;7.28;;;;;;;;;;5012252;28;20121;-62
2021/08/15 06:50:54;;;;;;;10.55;7.70;;;;;;;;;;5013020;28;20052;-62
2021/08/15 06:53:39;;;;;;;11.25;7.72;;;;;;;;;;5012814;28;20052;-63
2021/08/15 06:56:24;;;;;;;11.15;7.25;;;;;;;;;;5012851;28;20177;-62
2021/08/15 06:59:10;;;;;;;12.70;6.60;;;;;;;;;;5012027;28;20052;-61
2021/08/15 07:01:55;;;;;;;9.57;6.95;;;;;;;;;;5012060;28;20068;-62
2021/08/15 07:04:40;;;;;;;11.85;7.03;;;;;;;;;;5012404;28;20558;-62
2021/08/15 07:07:26;;;;;;;10.90;6.82;;;;;;;;;;5012819;28;20053;-61
2021/08/15 07:10:11;;;;;;;11.48;7.82;;;;;;;;;;5012693;28;20080;-62
2021/08/15 07:12:58;;;;;;;11.55;7.43;;;;;;;;;;5012545;28;20046;-62
2021/08/15 07:15:43;;;;;;;7.47;6.43;;;;;;;;;;5012652;28;20041;-62
2021/08/15 07:18:29;;;;;;;12.43;6.93;;;;;;;;;;5011702;28;20087;-62
2021/08/15 07:21:14;;;;;;;10.50;7.30;;;;;;;;;;5011525;28;20038;-62
2021/08/15 07:24:00;;;;;;;9.77;7.55;;;;;;;;;;5012373;28;20052;-62
2021/08/15 07:26:45;;;;;;;10.85;6.50;;;;;;;;;;5012472;28;20057;-62
2021/08/15 07:29:30;;;;;;;11.43;7.20;;;;;;;;;;5011607;28;20073;-62
2021/08/15 07:32:16;;;;;;;9.05;6.78;;;;;;;;;;5012232;28;20041;-62
2021/08/15 07:35:01;;;;;;;10.35;6.85;;;;;;;;;;5012191;28;20053;-62
2021/08/15 07:37:47;;;;;;;8.60;5.68;;;;;;;;;;5012560;28;20054;-62
2021/08/15 07:40:32;;;;;;;11.30;6.15;;;;;;;;;;5011166;28;20073;-62
2021/08/15 07:43:19;;;;;;;10.27;5.80;;;;;;;;;;5011672;28;20073;-62
2021/08/15 07:46:25;;;;;;;15.27;6.70;;;;;;;;;;5012110;28;20050;-62
2021/08/15 07:49:29;;;;;;;8.65;6.13;;;;;;;;;;5011424;28;20129;-62
2021/08/15 07:52:33;;;;;;;11.15;7.05;;;;;;;;;;5011950;28;20081;-62
2021/08/15 07:55:37;;;;;;;9.48;6.38;;;;;;;;;;5011614;28;20042;-62
2021/08/15 07:58:23;;;;;;;11.98;6.90;;;;;;;;;;5012141;28;20057;-63
2021/08/15 08:01:27;;;;;;;11.90;6.88;;;;;;;;;;5011569;28;20128;-62
2021/08/15 08:04:37;;;;;;;11.73;5.88;;;;;;;;;;5012082;28;20200;-62
2021/08/15 08:07:41;;;;;;;10.80;6.22;;;;;;;;;;5012059;28;20042;-62
2021/08/15 08:10:47;;;;;;;9.30;6.28;;;;;;;;;;5016313;28;20464;-62
2021/08/15 08:13:32;;;;;;;14.30;7.60;;;;;;;;;;5011732;28;20057;-62
2021/08/15 08:16:17;;;;;;;9.57;5.55;;;;;;;;;;5011873;28;20523;-62
2021/08/15 08:19:03;;;;;;;12.15;7.35;;;;;;;;;;5011949;28;20050;-62
2021/08/15 08:21:48;;;;;;;9.27;6.47;;;;;;;;;;5010995;28;20042;-62
2021/08/15 08:24:34;;;;;;;8.18;5.82;;;;;;;;;;5011968;28;20056;-62
2021/08/15 08:27:20;;;;;;;9.05;5.82;;;;;;;;;;5012158;28;20080;-62
2021/08/15 08:30:06;;;;;;;8.93;6.28;;;;;;;;;;5011847;28;20100;-62
2021/08/15 08:32:52;;;;;;;10.15;6.65;;;;;;;;;;5014949;28;20050;-62
2021/08/15 08:35:37;;;;;;;12.40;5.65;;;;;;;;;;5015386;28;20046;-62
2021/08/15 08:38:22;;;;;;;10.88;5.90;;;;;;;;;;5015061;28;20512;-62
2021/08/15 08:41:08;;;;;;;8.85;5.57;;;;;;;;;;5014686;28;20045;-62
2021/08/15 08:43:53;;;;;;;10.90;6.50;;;;;;;;;;5014311;28;20518;-62
2021/08/15 08:46:38;;;;;;;10.32;6.20;;;;;;;;;;5015251;28;20049;-62
2021/08/15 08:49:23;;;;;;;9.35;5.47;;;;;;;;;;5014231;28;20045;-62
2021/08/15 08:52:09;;;;;;;10.32;6.25;;;;;;;;;;4999427;28;20500;-62
2021/08/15 08:54:54;;;;;;;9.57;5.80;;;;;;;;;;5014061;28;20048;-62
2021/08/15 08:57:39;;;;;;;12.75;6.35;;;;;;;;;;5015331;28;20053;-62
2021/08/15 09:00:24;;;;;;;10.18;5.28;;;;;;;;;;5015077;28;20042;-62
2021/08/15 09:03:10;;;;;;;11.30;5.88;;;;;;;;;;5014258;28;20049;-62
2021/08/15 09:05:55;;;;;;;10.50;6.13;;;;;;;;;;5015215;28;20188;-62
2021/08/15 09:08:41;;;;;;;11.23;5.25;;;;;;;;;;5006539;28;20071;-62
2021/08/15 09:11:27;;;;;;;8.63;5.65;;;;;;;;;;5005101;28;20093;-63
2021/08/15 09:14:31;;;;;;;9.88;5.93;;;;;;;;;;5004885;28;20141;-63
2021/08/15 09:17:16;;;;;;;8.68;5.35;;;;;;;;;;5006469;28;20160;-63
2021/08/15 09:20:01;;;;;;;10.55;5.85;;;;;;;;;;5014786;28;20052;-63
2021/08/15 09:22:47;;;;;;;10.70;5.55;;;;;;;;;;5013694;28;20096;-63
2021/08/15 09:25:32;;;;;;;9.80;5.85;;;;;;;;;;5014304;28;20054;-64
2021/08/15 09:28:17;;;;;;;10.82;5.75;;;;;;;;;;5014479;28;20054;-63
2021/08/15 09:31:15;;;;;;;11.95;5.82;;;;;;;;;;5013469;28;20503;-64
2021/08/15 09:34:01;;;;;;;10.88;5.57;;;;;;;;;;5007184;28;20047;-63
2021/08/15 09:36:47;;;;;;;13.07;6.88;;;;;;;;;;5004142;28;20485;-63
2021/08/15 09:39:33;;;;;;;11.15;5.75;;;;;;;;;;5005081;28;20045;-63
2021/08/15 09:42:19;;;;;;;11.43;5.95;;;;;;;;;;5002939;28;20042;-63
2021/08/15 09:45:05;;;;;;;12.38;6.00;;;;;;;;;;5002851;28;20050;-63
2021/08/15 09:47:50;;;;;;;9.60;5.80;;;;;;;;;;5004442;28;20571;-63
2021/08/15 09:50:35;;;;;;;11.63;6.63;;;;;;;;;;5004471;28;20085;-64
2021/08/15 09:53:24;;;;;;;10.45;5.97;;;;;;;;;;5002233;28;20052;-63
2021/08/15 09:56:09;;;;;;;12.00;6.45;;;;;;;;;;5004189;28;20113;-63
2021/08/15 09:59:08;;;;;;;12.65;6.68;;;;;;;;;;5004568;28;20061;-64
2021/08/15 10:01:54;;;;;;;9.00;5.90;;;;;;;;;;5004194;28;20077;-63
2021/08/15 10:04:39;;;;;;;11.63;6.47;;;;;;;;;;5005287;28;20492;-66
2021/08/15 10:07:25;;;;;;;9.77;6.18;;;;;;;;;;5012072;28;20057;-66
2021/08/15 10:10:13;;;;;;;11.13;5.28;;;;;;;;;;5011766;28;20048;-66
2021/08/15 10:12:59;;;;;;;10.48;6.30;;;;;;;;;;5013119;28;20088;-66
2021/08/15 10:15:44;;;;;;;9.52;6.00;;;;;;;;;;5009108;28;20037;-66
2021/08/15 10:18:30;;;;;;;17.42;6.53;;;;;;;;;;5011685;28;20045;-66
2021/08/15 10:21:17;;;;;;;8.30;5.60;;;;;;;;;;5003616;28;20097;-65
2021/08/15 10:24:12;;;;;;;13.18;6.18;;;;;;;;;;5000338;28;20527;-66
2021/08/15 10:26:57;;;;;;;11.52;6.72;;;;;;;;;;4999239;28;20196;-66
2021/08/15 10:29:46;;;;;;;12.05;6.32;;;;;;;;;;4991255;28;20061;-65
2021/08/15 10:32:32;;;;;;;9.75;6.30;;;;;;;;;;5010850;28;20073;-65
2021/08/15 10:35:18;;;;;;;12.50;5.95;;;;;;;;;;5007415;28;20049;-65
2021/08/15 10:38:07;;;;;;;13.52;6.75;;;;;;;;;;5010127;28;20116;-66
2021/08/15 10:40:52;;;;;;;9.27;5.20;;;;;;;;;;5001178;28;20056;-66
2021/08/15 10:43:37;;;;;;;9.43;5.53;;;;;;;;;;5002820;28;20068;-66
2021/08/15 10:46:23;;;;;;;11.82;6.13;;;;;;;;;;5004062;28;20572;-65
2021/08/15 10:49:09;;;;;;;13.52;7.75;;;;;;;;;;5010890;28;20046;-65
2021/08/15 10:51:54;;;;;;;10.70;6.65;;;;;;;;;;5010454;28;20687;-65
2021/08/15 10:54:39;;;;;;;10.75;6.15;;;;;;;;;;5009122;28;20194;-66
2021/08/15 10:57:34;;;;;;;9.57;6.47;;;;;;;;;;5009774;28;20061;-65
2021/08/15 11:00:40;;;;;;;11.13;6.57;;;;;;;;;;4993337;28;20075;-66
2021/08/15 11:03:25;;;;;;;10.95;6.25;;;;;;;;;;4992971;28;20038;-66
2021/08/15 11:06:33;;;;;;;10.43;5.68;;;;;;;;;;5011448;28;20049;-66
2021/08/15 11:09:19;;;;;;;9.00;4.80;;;;;;;;;;5011860;28;20111;-66
2021/08/15 11:12:05;;;;;;;9.77;4.88;;;;;;;;;;5012833;28;20056;-66
2021/08/15 11:15:09;;;;;;;11.30;5.53;;;;;;;;;;5012280;28;20041;-65
2021/08/15 11:18:09;;;;;;;7.72;5.40;;;;;;;;;;5012454;28;20053;-65
2021/08/15 11:20:56;;;;;;;8.82;4.50;;;;;;;;;;5001836;28;20516;-65
2021/08/15 11:23:41;;;;;;;11.35;5.13;;;;;;;;;;5008814;28;20404;-64
2021/08/15 11:26:27;;;;;;;9.43;5.57;;;;;;;;;;5007181;28;20046;-65
2021/08/15 11:29:12;;;;;;;9.88;4.97;;;;;;;;;;5006223;28;20135;-63
2021/08/15 11:31:58;;;;;;;9.30;5.18;;;;;;;;;;5008339;28;20045;-63
2021/08/15 11:34:50;;;;;;;8.80;5.15;;;;;;;;;;5006909;28;20574;-64
2021/08/15 11:37:37;;;;;;;7.00;4.63;;;;;;;;;;5008879;28;20042;-62
2021/08/15 11:40:29;;;;;;;9.27;5.50;;;;;;;;;;4995859;28;20073;-63
2021/08/15 11:43:18;;;;;;;9.98;4.90;;;;;;;;;;4999189;28;20523;-63
2021/08/15 11:46:05;;;;;;;9.57;5.00;;;;;;;;;;5003172;28;20056;-63
2021/08/15 11:48:50;;;;;;;11.25;5.30;;;;;;;;;;5007912;28;20057;-63
2021/08/15 11:51:35;;;;;;;8.48;3.95;;;;;;;;;;5006580;28;20034;-63
2021/08/15 11:54:37;;;;;;;7.30;3.97;;;;;;;;;;5008542;28;20045;-63
2021/08/15 11:57:22;;;;;;;8.82;4.63;;;;;;;;;;5008997;28;20100;-63
2021/08/15 12:00:08;;;;;;;7.68;4.32;;;;;;;;;;5007053;28;20046;-63
2021/08/15 12:03:02;;;;;;;8.38;3.92;;;;;;;;;;5009005;28;20041;-63
2021/08/15 12:05:47;;;;;;;7.47;4.13;;;;;;;;;;5007511;28;20149;-63
2021/08/15 12:08:39;;;;;;;6.65;3.60;;;;;;;;;;5008336;28;20511;-62
2021/08/15 12:11:25;;;;;;;7.53;3.95;;;;;;;;;;5012549;28;20061;-64
2021/08/15 12:14:10;;;;;;;5.85;3.40;;;;;;;;;;5013396;28;20057;-63
2021/08/15 12:16:58;;;;;;;8.48;3.78;;;;;;;;;;5013982;28;20045;-63
2021/08/15 12:19:43;;;;;;;8.48;4.28;;;;;;;;;;5013371;28;20057;-63
2021/08/15 12:22:28;;;;;;;8.95;4.38;;;;;;;;;;5010895;28;20057;-64
2021/08/15 12:25:19;;;;;;;6.82;3.45;;;;;;;;;;5013336;28;20098;-64
2021/08/15 12:28:11;;;;;;;8.20;4.40;;;;;;;;;;5012847;28;20045;-64
2021/08/15 12:30:56;;;;;;;;;;;;;;;;;;5013857;28;20057;-64
2021/08/15 12:33:42;;;;;;;6.75;4.10;;;;;;;;;;4993202;28;20016;-64
2021/08/15 12:36:27;;;;;;;5.43;3.70;;;;;;;;;;4993454;28;20049;-64
2021/08/15 12:39:13;;;;;;;7.13;4.00;;;;;;;;;;4993853;28;20457;-64
2021/08/15 12:42:03;;;;;;;9.00;4.25;;;;;;;;;;4996771;28;20177;-64
2021/08/15 12:44:49;;;;;;;9.65;4.07;;;;;;;;;;5013153;28;20084;-64
2021/08/15 12:47:34;;;;;;;7.40;4.43;;;;;;;;;;5012715;28;20073;-64
2021/08/15 12:50:21;;;;;;;8.50;4.78;;;;;;;;;;5012642;28;20124;-64
2021/08/15 12:53:16;;;;;;;7.20;4.13;;;;;;;;;;5012625;28;20061;-64
2021/08/15 12:56:14;;;;;;;7.10;3.95;;;;;;;;;;5013047;28;20054;-64
2021/08/15 12:59:00;;;;;;;5.07;3.83;;;;;;;;;;5012997;28;20103;-64
2021/08/15 13:01:45;;;;;;;6.28;3.72;;;;;;;;;;5012886;28;20065;-63
2021/08/15 13:04:30;;;;;;;7.05;4.00;;;;;;;;;;5010282;28;20049;-63
2021/08/15 13:07:15;;;;;;;6.70;3.97;;;;;;;;;;5008207;28;20555;-63
2021/08/15 13:10:02;;;;;;;6.38;4.53;;;;;;;;;;5012836;28;20054;-63
2021/08/15 13:12:48;;;;;;;6.15;3.42;;;;;;;;;;5012161;28;20056;-64
2021/08/15 13:15:33;;;;;;;6.47;3.95;;;;;;;;;;5011816;28;20068;-64
2021/08/15 13:18:20;;;;;;;5.93;3.67;;;;;;;;;;5011455;28;20051;-63
2021/08/15 13:21:05;;;;;;;8.27;4.25;;;;;;;;;;5012382;28;20112;-64
2021/08/15 13:23:50;;;;;;;7.13;4.03;;;;;;;;;;5011400;28;20049;-64
2021/08/15 13:26:35;;;;;;;7.78;3.60;;;;;;;;;;5011935;28;20054;-64
2021/08/15 13:29:20;;;;;;;8.63;4.03;;;;;;;;;;5011041;28;20472;-64
2021/08/15 13:32:05;;;;;;;8.60;4.15;;;;;;;;;;5012356;28;20050;-64
2021/08/15 13:34:55;;;;;;;6.63;4.03;;;;;;;;;;5011453;28;20049;-65
2021/08/15 13:37:40;;;;;;;6.05;4.00;;;;;;;;;;5011716;28;20177;-64
2021/08/15 13:40:26;;;;;;;4.53;3.63;;;;;;;;;;5009863;28;20045;-64
2021/08/15 13:43:11;;;;;;;9.23;4.28;;;;;;;;;;5012409;28;20045;-64
2021/08/15 13:45:57;;;;;;;7.65;3.50;;;;;;;;;;5012232;28;20104;-64
2021/08/15 13:48:42;;;;;;;7.22;3.70;;;;;;;;;;5014128;28;20516;-64
2021/08/15 13:51:27;;;;;;;7.65;4.07;;;;;;;;;;5012352;28;20042;-64
2021/08/15 13:54:13;;;;;;;5.65;3.17;;;;;;;;;;5013603;28;20050;-64
2021/08/15 13:56:58;;;;;;;7.30;3.58;;;;;;;;;;5012817;28;20052;-64
2021/08/15 13:59:43;;;;;;;6.85;3.35;;;;;;;;;;5013960;28;20450;-64
2021/08/15 14:02:29;;;;;;;5.72;3.60;;;;;;;;;;5012184;28;20049;-64
2021/08/15 14:05:17;;;;;;;6.78;4.00;;;;;;;;;;5013597;28;20435;-64
2021/08/15 14:08:06;;;;;;;8.10;3.90;;;;;;;;;;5013701;28;20049;-64
2021/08/15 14:10:51;;;;;;;6.07;3.85;;;;;;;;;;5012762;28;20050;-64
2021/08/15 14:13:36;;;;;;;6.18;4.13;;;;;;;;;;5013601;28;20052;-64
2021/08/15 14:16:22;;;;;;;7.65;4.30;;;;;;;;;;5013533;28;20456;-64
2021/08/15 14:19:07;;;;;;;7.68;4.00;;;;;;;;;;5013518;28;20109;-64
2021/08/15 14:21:52;;;;;;;8.13;4.07;;;;;;;;;;5012711;28;20053;-64
2021/08/15 14:24:38;;;;;;;8.32;4.38;;;;;;;;;;5013339;28;20046;-64
2021/08/15 14:27:23;;;;;;;9.05;4.15;;;;;;;;;;5013432;28;20061;-64
2021/08/15 14:30:10;;;;;;;5.93;3.65;;;;;;;;;;5012109;28;20117;-64
2021/08/15 14:32:55;;;;;;;8.85;4.32;;;;;;;;;;5013386;28;20404;-64
2021/08/15 14:35:40;;;;;;;8.82;4.68;;;;;;;;;;5012856;28;20176;-65
2021/08/15 14:38:25;;;;;;;8.73;4.07;;;;;;;;;;5012921;28;20180;-65
2021/08/15 14:41:12;;;;;;;5.28;3.17;;;;;;;;;;5011876;28;20056;-63
2021/08/15 14:43:57;;;;;;;9.25;3.03;;;;;;;;;;5012836;28;20046;-64
2021/08/15 14:46:43;;;;;;;14.68;3.97;;;;;;;;;;5012915;28;20511;-64
2021/08/15 14:49:29;;;;;;;10.63;3.70;;;;;;;;;;5012864;28;20172;-64
2021/08/15 14:52:14;;;;;;;5.20;2.65;;;;;;;;;;5010902;28;20552;-64
2021/08/15 14:54:59;;;;;;;2.88;2.05;;;;;;;;;;5012398;28;20073;-64
2021/08/15 14:57:45;;;;;;;5.78;2.72;;;;;;;;;;5012689;28;20042;-64
2021/08/15 15:00:30;;;;;;;3.70;1.80;;;;;;;;;;5011083;28;20072;-63
2021/08/15 15:03:16;;;;;;;3.42;1.90;;;;;;;;;;5012925;28;20045;-64
2021/08/15 15:06:01;;;;;;;10.10;2.65;;;;;;;;;;5012664;28;20092;-64
2021/08/15 15:08:46;;;;;;;2.95;1.45;;;;;;;;;;5012688;28;20165;-64
2021/08/15 15:11:32;;;;;;;2.58;1.40;;;;;;;;;;5011671;28;20104;-64
2021/08/15 15:14:17;;;;;;;4.28;1.60;;;;;;;;;;5011489;28;20164;-64
2021/08/15 15:17:03;;;;;;;3.90;1.45;;;;;;;;;;5012698;28;20179;-64
2021/08/15 15:19:48;;;;;;;4.15;1.70;;;;;;;;;;5012622;28;20507;-64
2021/08/15 15:22:33;;;;;;;6.40;1.77;;;;;;;;;;5011642;28;20081;-64
2021/08/15 15:25:19;;;;;;;3.20;1.52;;;;;;;;;;5012187;28;20056;-64
2021/08/15 15:28:04;;;;;;;4.03;2.25;;;;;;;;;;5012570;28;20104;-63
2021/08/15 15:30:49;;;;;;;4.30;2.10;;;;;;;;;;5012334;28;20060;-64
2021/08/15 15:33:35;;;;;;;3.28;1.98;;;;;;;;;;5012111;28;20542;-63
2021/08/15 15:36:20;;;;;;;6.43;2.08;;;;;;;;;;5012357;28;20519;-64
2021/08/15 15:39:05;;;;;;;4.28;2.00;;;;;;;;;;5012367;28;20184;-64
2021/08/15 15:41:51;;;;;;;3.88;1.88;;;;;;;;;;5010544;28;20485;-63
2021/08/15 15:44:37;;;;;;;4.90;2.00;;;;;;;;;;5011989;28;20104;-63
2021/08/15 15:47:22;;;;;;;4.60;1.90;;;;;;;;;;5012245;28;20050;-63
2021/08/15 15:50:07;;;;;;;4.13;2.05;;;;;;;;;;5012294;28;20534;-63
2021/08/15 15:52:53;;;;;;;3.42;1.80;;;;;;;;;;5011370;28;20045;-63
2021/08/15 15:55:38;;;;;;;5.00;2.25;;;;;;;;;;5011851;28;20639;-64
2021/08/15 15:58:24;;;;;;;13.20;2.35;;;;;;;;;;5012155;28;20168;-62
2021/08/15 16:01:09;;;;;;;3.40;1.83;;;;;;;;;;5011035;28;20053;-63
2021/08/15 16:03:55;;;;;;;3.13;1.75;;;;;;;;;;5011782;28;20168;-63
2021/08/15 16:06:40;;;;;;;3.42;1.85;;;;;;;;;;5012023;28;20443;-63
2021/08/15 16:09:26;;;;;;;3.80;1.85;;;;;;;;;;5012245;28;20042;-63
2021/08/15 16:12:12;;;;;;;4.63;2.00;;;;;;;;;;5011192;28;20639;-64
2021/08/15 16:14:58;;;;;;;3.20;2.10;;;;;;;;;;5012036;28;20052;-63
2021/08/15 16:17:43;;;;;;;4.53;2.50;;;;;;;;;;5012202;28;20516;-63
2021/08/15 16:20:28;;;;;;;3.05;2.28;;;;;;;;;;5011990;28;20176;-64
2021/08/15 16:23:14;;;;;;;3.45;2.30;;;;;;;;;;5010937;23;20050;-65
2021/08/15 16:26:02;;;;;;;2.92;2.05;;;;;;;;;;4992247;28;20053;-65
2021/08/15 16:28:47;;;;;;;4.20;2.63;;;;;;;;;;4992586;28;20061;-65